Terminal Aerodrome Forecast
Issued by NWS Twin Cities, MN

Home | Current Version | Previous Version | Text Only | Print | Product List | Glossary Off
Versions: 1 2 3 4 5 6 7 8 9 10 11 12 13 14 15 16 17 18

000
FTUS43 KMPX 191700
TAFSTC
TAF
KSTC 191735Z 1918/2018 19015G22KT P6SM VCSH SCT040 BKN090
     FM192100 25011KT P6SM SCT100 BKN250
     FM200400 VRB03KT P6SM SKC
     FM201400 11006KT P6SM SKC=

USA.gov is the U.S. government's official web portal to all federal, state and local government web resources and services.